createdAt,value
2017-08-28T00:01:37.733Z,76.50
2017-08-28T00:04:05.001Z,76.70
2017-08-28T00:06:32.102Z,76.90
2017-08-28T00:08:58.376Z,77.40
2017-08-28T00:11:25.615Z,77.30
2017-08-28T00:13:52.971Z,77.90
2017-08-28T00:16:20.289Z,77.50
2017-08-28T00:18:48.507Z,77.70
2017-08-28T00:21:16.725Z,77.40
2017-08-28T00:23:42.971Z,76.80
2017-08-28T00:26:10.308Z,76.80
2017-08-28T00:28:37.450Z,76.50
2017-08-28T00:31:03.775Z,77.10
2017-08-28T00:33:30.052Z,77.30
2017-08-28T00:35:56.328Z,76.50
2017-08-28T00:38:22.636Z,77.00
2017-08-28T00:40:49.413Z,76.50
2017-08-28T00:43:16.136Z,76.90
2017-08-28T00:45:42.911Z,76.80
2017-08-28T00:48:10.166Z,77.10
2017-08-28T00:50:36.747Z,76.80
2017-08-28T00:53:03.088Z,76.70
2017-08-28T00:55:29.559Z,77.20
2017-08-28T00:57:55.885Z,77.40
2017-08-28T01:00:22.173Z,77.20
2017-08-28T01:02:49.023Z,76.90
2017-08-28T01:05:15.835Z,76.70
2017-08-28T01:07:42.212Z,76.40
2017-08-28T01:10:10.124Z,76.30
2017-08-28T01:12:36.390Z,76.30
2017-08-28T01:15:10.365Z,76.30
2017-08-28T01:17:36.613Z,76.40
2017-08-28T01:20:02.916Z,76.70
2017-08-28T01:22:29.151Z,76.80
2017-08-28T01:24:55.953Z,76.30
2017-08-28T01:27:22.213Z,76.20
2017-08-28T01:29:48.487Z,76.30
2017-08-28T01:32:15.014Z,76.90
2017-08-28T01:34:41.344Z,77.40
2017-08-28T01:37:07.624Z,77.00
2017-08-28T01:39:34.858Z,77.10
2017-08-28T01:42:02.123Z,77.50
2017-08-28T01:44:28.406Z,77.80
2017-08-28T01:46:54.679Z,78.10
2017-08-28T01:49:21.017Z,78.10
2017-08-28T01:51:47.627Z,78.90
2017-08-28T01:54:14.545Z,79.10
2017-08-28T01:56:41.784Z,79.10
2017-08-28T01:59:08.937Z,79.30
2017-08-28T02:01:35.263Z,78.80
2017-08-28T02:04:03.558Z,78.20
2017-08-28T02:06:31.827Z,77.60
2017-08-28T02:08:58.092Z,77.40
2017-08-28T02:11:24.360Z,78.10
2017-08-28T02:13:51.629Z,78.40
2017-08-28T02:16:17.937Z,77.90
2017-08-28T02:18:45.504Z,78.00
2017-08-28T02:21:12.836Z,78.30
2017-08-28T02:23:40.216Z,78.00
2017-08-28T02:26:07.127Z,77.90
2017-08-28T02:28:34.388Z,77.90
2017-08-28T02:31:00.656Z,77.90
2017-08-28T02:33:26.913Z,78.00
2017-08-28T02:35:53.201Z,77.80
2017-08-28T02:38:20.097Z,77.80
2017-08-28T02:40:46.451Z,77.90
2017-08-28T02:43:13.265Z,77.60
2017-08-28T02:45:39.490Z,77.50
2017-08-28T02:48:06.357Z,77.40
2017-08-28T02:50:33.193Z,77.50
2017-08-28T02:53:00.159Z,77.50
2017-08-28T02:55:26.406Z,77.00
2017-08-28T02:57:53.243Z,77.10
2017-08-28T03:00:19.506Z,77.40
2017-08-28T03:02:46.050Z,77.80
2017-08-28T03:05:12.335Z,78.50
2017-08-28T03:07:38.607Z,78.50
2017-08-28T03:10:05.905Z,77.80
2017-08-28T03:12:32.201Z,77.60
2017-08-28T03:14:59.442Z,77.40
2017-08-28T03:17:27.184Z,77.50
2017-08-28T03:19:54.425Z,77.60
2017-08-28T03:22:20.787Z,77.70
2017-08-28T03:24:47.095Z,77.50
2017-08-28T03:27:14.353Z,77.30
2017-08-28T03:29:41.146Z,77.40
2017-08-28T03:32:07.983Z,77.50
2017-08-28T03:34:35.180Z,77.60
2017-08-28T03:37:02.115Z,77.60
2017-08-28T03:39:29.030Z,77.70
2017-08-28T03:41:55.551Z,77.90
2017-08-28T03:44:21.826Z,78.20
2017-08-28T03:46:48.793Z,78.70
2017-08-28T03:49:15.053Z,78.70
2017-08-28T03:51:41.568Z,79.10
2017-08-28T03:54:07.851Z,78.80
2017-08-28T03:56:34.141Z,79.00
2017-08-28T03:59:01.031Z,78.50
2017-08-28T04:01:27.300Z,78.10
2017-08-28T04:03:54.165Z,78.10
2017-08-28T04:06:21.132Z,78.10
2017-08-28T04:08:48.155Z,77.80
2017-08-28T04:11:14.450Z,77.70
2017-08-28T04:13:41.317Z,78.50
2017-08-28T04:16:08.552Z,77.60
2017-08-28T04:18:34.800Z,77.80
2017-08-28T04:21:01.214Z,77.60
2017-08-28T04:23:28.044Z,77.60
2017-08-28T04:25:54.368Z,77.30
2017-08-28T04:28:21.315Z,77.30
2017-08-28T04:30:47.881Z,77.30
2017-08-28T04:33:14.419Z,77.50
2017-08-28T04:35:40.686Z,77.30
2017-08-28T04:38:07.915Z,77.60
2017-08-28T04:40:34.189Z,77.80
2017-08-28T04:43:00.451Z,78.00
2017-08-28T04:45:34.473Z,77.90
2017-08-28T04:48:02.705Z,77.90
2017-08-28T04:50:29.946Z,77.90
2017-08-28T04:52:56.180Z,78.30
2017-08-28T04:55:22.477Z,78.10
2017-08-28T04:57:49.448Z,78.20
2017-08-28T05:00:15.740Z,78.00
2017-08-28T05:02:42.007Z,77.90
2017-08-28T05:05:09.168Z,78.20
2017-08-28T05:07:35.458Z,78.70
2017-08-28T05:10:02.028Z,79.00
2017-08-28T05:12:28.365Z,79.10
2017-08-28T05:14:54.991Z,78.50
2017-08-28T05:17:21.299Z,78.30
2017-08-28T05:19:48.185Z,78.50
2017-08-28T05:22:14.458Z,78.40
2017-08-28T05:24:41.170Z,78.80
2017-08-28T05:27:08.455Z,78.70
2017-08-28T05:29:35.402Z,79.00
2017-08-28T05:32:02.093Z,79.00
2017-08-28T05:34:28.455Z,79.00
2017-08-28T05:36:54.758Z,78.90
2017-08-28T05:41:55.963Z,79.00
2017-08-28T05:44:22.472Z,79.10
2017-08-28T05:46:48.772Z,78.70
2017-08-28T05:49:15.027Z,79.10
2017-08-28T05:51:41.303Z,79.60
2017-08-28T05:54:07.587Z,79.60
2017-08-28T05:56:33.853Z,78.60
2017-08-28T05:59:00.208Z,78.80
2017-08-28T06:01:26.473Z,74.70
2017-08-28T06:03:53.396Z,76.90
2017-08-28T06:06:20.713Z,76.30
2017-08-28T06:08:47.932Z,75.20
2017-08-28T06:11:15.175Z,76.40
2017-08-28T06:13:41.441Z,76.30
2017-08-28T06:16:09.022Z,72.60
2017-08-28T06:18:35.281Z,73.10
2017-08-28T06:21:01.627Z,73.80
2017-08-28T06:23:28.083Z,72.70
2017-08-28T06:25:54.456Z,68.40
2017-08-28T06:28:21.284Z,70.00
2017-08-28T06:30:47.570Z,67.40
2017-08-28T06:33:14.069Z,69.10
2017-08-28T06:35:40.625Z,70.00
2017-08-28T06:38:07.081Z,68.40
2017-08-28T06:40:33.378Z,62.70
2017-08-28T06:42:59.650Z,65.10
2017-08-28T06:45:25.914Z,60.60
2017-08-28T06:47:53.367Z,64.10
2017-08-28T06:50:20.159Z,61.90
2017-08-28T06:52:46.948Z,62.40
2017-08-28T06:55:13.237Z,63.20
2017-08-28T06:57:39.515Z,64.50
2017-08-28T07:00:05.836Z,65.80
2017-08-28T07:02:32.102Z,61.90
2017-08-28T07:04:58.715Z,62.30
2017-08-28T07:07:25.710Z,60.60
2017-08-28T07:09:52.498Z,59.80
2017-08-28T07:12:19.767Z,62.30
2017-08-28T07:14:48.010Z,62.60
2017-08-28T07:17:14.315Z,61.50
2017-08-28T07:19:40.583Z,61.50
2017-08-28T07:22:07.473Z,61.30
2017-08-28T07:24:34.433Z,62.80
2017-08-28T07:27:01.210Z,63.40
2017-08-28T07:29:27.570Z,62.60
2017-08-28T07:31:53.932Z,61.60
2017-08-28T07:34:21.465Z,61.50
2017-08-28T07:36:48.041Z,59.20
2017-08-28T07:39:15.508Z,59.70
2017-08-28T07:41:44.503Z,61.70
2017-08-28T07:44:12.855Z,58.70
2017-08-28T07:46:39.393Z,60.00
2017-08-28T07:49:05.688Z,59.70
2017-08-28T07:51:31.969Z,60.40
2017-08-28T07:53:58.273Z,61.00
2017-08-28T07:56:24.530Z,61.60
2017-08-28T07:58:50.808Z,59.80
2017-08-28T08:01:17.702Z,59.70
2017-08-28T08:03:43.978Z,59.90
2017-08-28T08:06:10.242Z,58.60
2017-08-28T08:08:36.547Z,57.10
2017-08-28T08:11:03.417Z,57.60
2017-08-28T08:13:29.699Z,56.40
2017-08-28T08:15:56.047Z,57.90
2017-08-28T08:18:23.290Z,55.50
2017-08-28T08:20:49.570Z,53.80
2017-08-28T08:23:16.104Z,52.90
2017-08-28T08:25:43.193Z,54.30
2017-08-28T08:28:10.169Z,54.10
2017-08-28T08:30:36.632Z,54.90
2017-08-28T08:33:02.953Z,52.60
2017-08-28T08:35:29.215Z,53.70
2017-08-28T08:37:56.362Z,52.90
2017-08-28T08:40:23.126Z,52.30
2017-08-28T08:42:50.207Z,50.00
2017-08-28T08:45:17.207Z,50.10
2017-08-28T08:47:44.897Z,49.70
2017-08-28T08:50:11.802Z,48.80
2017-08-28T08:52:38.244Z,49.30
2017-08-28T08:55:06.018Z,50.60
2017-08-28T08:57:32.320Z,50.00
2017-08-28T08:59:58.616Z,49.60
2017-08-28T09:02:25.441Z,50.80
2017-08-28T09:04:51.795Z,50.10
2017-08-28T09:07:18.736Z,50.80
2017-08-28T09:09:45.007Z,50.70
2017-08-28T09:12:12.259Z,50.70
2017-08-28T09:14:38.515Z,49.70
2017-08-28T09:17:04.783Z,50.30
2017-08-28T09:19:31.024Z,50.50
2017-08-28T09:21:57.621Z,51.00
2017-08-28T09:24:24.735Z,51.90
2017-08-28T09:26:52.027Z,50.90
2017-08-28T09:29:18.296Z,50.80
2017-08-28T09:31:44.554Z,51.60
2017-08-28T09:34:10.811Z,51.10
2017-08-28T09:36:37.542Z,50.10
2017-08-28T09:39:03.825Z,50.10
2017-08-28T09:41:30.601Z,51.00
2017-08-28T09:43:56.884Z,51.00
2017-08-28T09:46:23.197Z,51.80
2017-08-28T09:48:49.492Z,50.90
2017-08-28T09:51:15.732Z,51.10
2017-08-28T09:53:42.796Z,51.10
2017-08-28T09:56:10.351Z,51.60
2017-08-28T09:58:36.624Z,51.60
2017-08-28T10:01:03.143Z,51.10
2017-08-28T10:03:29.822Z,51.20
2017-08-28T10:05:56.124Z,49.80
2017-08-28T10:08:23.832Z,50.20
2017-08-28T10:10:50.685Z,50.30
2017-08-28T10:13:17.238Z,51.30
2017-08-28T10:15:45.918Z,51.80
2017-08-28T10:18:12.198Z,50.10
2017-08-28T10:20:38.495Z,50.00
2017-08-28T10:23:04.740Z,50.80
2017-08-28T10:25:35.346Z,51.20
2017-08-28T10:28:02.187Z,49.50
2017-08-28T10:30:28.684Z,48.60
2017-08-28T10:32:54.959Z,49.50
2017-08-28T10:35:21.226Z,48.20
2017-08-28T10:37:47.570Z,49.10
2017-08-28T10:40:14.870Z,48.50
2017-08-28T10:42:41.157Z,48.80
2017-08-28T10:45:07.430Z,50.10
2017-08-28T10:47:34.324Z,50.10
2017-08-28T10:50:00.607Z,50.30
2017-08-28T10:52:27.389Z,50.10
2017-08-28T10:55:00.656Z,50.30
2017-08-28T10:57:26.934Z,50.30
2017-08-28T10:59:54.162Z,50.00
2017-08-28T11:02:21.089Z,49.60
2017-08-28T11:04:47.800Z,49.80
2017-08-28T11:07:14.570Z,49.10
2017-08-28T11:09:40.904Z,49.10
2017-08-28T11:12:07.317Z,48.50
2017-08-28T11:14:33.742Z,48.00
2017-08-28T11:17:00.164Z,48.80
2017-08-28T11:19:26.468Z,48.70
2017-08-28T11:21:52.722Z,49.30
2017-08-28T11:24:18.985Z,47.50
2017-08-28T11:26:45.282Z,47.70
2017-08-28T11:29:11.567Z,47.90
2017-08-28T11:31:37.882Z,48.10
2017-08-28T11:34:04.894Z,47.20
2017-08-28T11:36:31.879Z,46.50
2017-08-28T11:38:58.471Z,47.60
2017-08-28T11:41:24.722Z,47.40
2017-08-28T11:43:50.984Z,47.00
2017-08-28T11:46:19.251Z,48.00
2017-08-28T11:48:46.068Z,46.60
2017-08-28T11:51:12.897Z,45.90
2017-08-28T11:53:39.736Z,46.40
2017-08-28T11:56:06.685Z,46.40
2017-08-28T11:58:33.030Z,46.50
2017-08-28T12:00:59.508Z,46.50
2017-08-28T12:03:26.401Z,45.90
2017-08-28T12:05:52.703Z,46.80
2017-08-28T12:08:18.989Z,47.50
2017-08-28T12:10:45.448Z,47.80
2017-08-28T12:13:11.692Z,48.50
2017-08-28T12:15:37.995Z,48.50
2017-08-28T12:18:04.241Z,48.20
2017-08-28T12:20:30.541Z,47.80
2017-08-28T12:22:57.716Z,48.40
2017-08-28T12:25:24.736Z,48.80
2017-08-28T12:27:51.648Z,49.30
2017-08-28T12:30:17.953Z,49.40
2017-08-28T12:32:44.238Z,50.00
2017-08-28T12:35:11.513Z,49.30
2017-08-28T12:37:38.490Z,49.40
2017-08-28T12:40:05.272Z,48.80
2017-08-28T12:42:32.564Z,48.40
2017-08-28T12:44:59.130Z,48.60
2017-08-28T12:47:26.084Z,48.40
2017-08-28T12:49:52.928Z,49.60
2017-08-28T12:52:20.201Z,47.90
2017-08-28T12:54:46.480Z,48.60
2017-08-28T12:57:14.085Z,48.10
2017-08-28T12:59:40.416Z,48.20
2017-08-28T13:02:07.602Z,47.20
2017-08-28T13:04:33.910Z,47.40
2017-08-28T13:07:00.866Z,47.90
2017-08-28T13:09:28.459Z,47.90
2017-08-28T13:11:55.338Z,46.70
2017-08-28T13:14:21.673Z,45.60
2017-08-28T13:16:48.146Z,46.30
2017-08-28T13:19:16.413Z,45.80
2017-08-28T13:21:43.442Z,46.80
2017-08-28T13:24:11.460Z,46.80
2017-08-28T13:26:39.742Z,46.90
2017-08-28T13:29:06.120Z,46.30
2017-08-28T13:31:32.740Z,46.20
2017-08-28T13:34:00.231Z,46.80
2017-08-28T13:39:04.714Z,46.90
2017-08-28T13:41:31.636Z,46.20
2017-08-28T13:43:58.956Z,46.80
2017-08-28T13:46:25.467Z,46.20
2017-08-28T13:48:52.066Z,46.10
2017-08-28T13:51:19.586Z,45.60
2017-08-28T13:53:45.951Z,45.90
2017-08-28T13:56:12.227Z,45.50
2017-08-28T13:58:38.494Z,44.00
2017-08-28T14:01:04.761Z,43.90
2017-08-28T14:03:31.034Z,44.00
2017-08-28T14:05:58.062Z,43.40
2017-08-28T14:08:25.281Z,43.60
2017-08-28T14:10:51.609Z,42.90
2017-08-28T14:13:18.431Z,43.10
2017-08-28T14:15:44.779Z,43.60
2017-08-28T14:18:11.285Z,43.20
2017-08-28T14:20:37.685Z,43.10
2017-08-28T14:23:04.263Z,43.20
2017-08-28T14:25:31.582Z,44.20
2017-08-28T14:27:57.846Z,44.40
2017-08-28T14:30:25.118Z,43.70
2017-08-28T14:32:52.354Z,43.60
2017-08-28T14:35:19.484Z,43.90
2017-08-28T14:37:46.942Z,43.40
2017-08-28T14:40:14.827Z,43.90
2017-08-28T14:42:41.270Z,42.80
2017-08-28T14:45:08.395Z,43.10
2017-08-28T14:47:34.783Z,42.50
2017-08-28T14:50:01.093Z,42.90
2017-08-28T14:52:27.375Z,43.30
2017-08-28T14:54:53.671Z,44.30
2017-08-28T14:57:20.957Z,44.20
2017-08-28T14:59:48.227Z,43.80
2017-08-28T15:02:14.512Z,43.70
2017-08-28T15:04:40.802Z,42.50
2017-08-28T15:07:08.054Z,41.90
2017-08-28T15:09:34.967Z,41.60
2017-08-28T15:12:01.991Z,40.60
2017-08-28T15:14:28.241Z,40.20
2017-08-28T15:16:55.602Z,40.60
2017-08-28T15:19:22.445Z,40.10
2017-08-28T15:21:48.718Z,41.00
2017-08-28T15:24:15.251Z,41.20
2017-08-28T15:26:42.123Z,40.20
2017-08-28T15:29:08.419Z,40.60
2017-08-28T15:31:35.296Z,40.30
2017-08-28T15:34:01.575Z,40.20
2017-08-28T15:36:27.886Z,40.40
2017-08-28T15:38:54.811Z,40.20
2017-08-28T15:41:21.076Z,40.30
2017-08-28T15:43:48.347Z,40.80
2017-08-28T15:46:14.626Z,40.80
2017-08-28T15:48:42.185Z,41.10
2017-08-28T15:51:08.446Z,41.00
2017-08-28T15:53:34.695Z,40.70
2017-08-28T15:56:01.824Z,41.40
2017-08-28T15:58:28.080Z,41.30
2017-08-28T16:00:56.451Z,41.80
2017-08-28T16:03:22.736Z,41.80
2017-08-28T16:05:48.996Z,42.80
2017-08-28T16:08:16.245Z,42.10
2017-08-28T16:10:42.574Z,42.10
2017-08-28T16:13:08.846Z,41.70
2017-08-28T16:15:35.580Z,42.10
2017-08-28T16:18:01.913Z,42.30
2017-08-28T16:20:29.039Z,41.80
2017-08-28T16:22:55.310Z,41.80
2017-08-28T16:25:22.031Z,41.70
2017-08-28T16:27:48.335Z,41.80
2017-08-28T16:30:14.641Z,42.50
2017-08-28T16:32:40.962Z,42.20
2017-08-28T16:35:08.081Z,42.30
2017-08-28T16:37:34.961Z,42.60
2017-08-28T16:40:01.207Z,42.80
2017-08-28T16:42:27.806Z,43.30
2017-08-28T16:44:54.106Z,42.80
2017-08-28T16:47:20.954Z,43.40
2017-08-28T16:49:47.906Z,43.30
2017-08-28T16:52:14.148Z,43.90
2017-08-28T16:54:40.610Z,44.00
2017-08-28T16:57:07.855Z,44.20
2017-08-28T16:59:34.447Z,43.60
2017-08-28T17:02:00.750Z,43.70
2017-08-28T17:04:27.032Z,43.70
2017-08-28T17:06:53.988Z,43.80
2017-08-28T17:09:21.182Z,43.90
2017-08-28T17:11:47.469Z,44.10
2017-08-28T17:14:13.719Z,44.40
2017-08-28T17:16:40.047Z,44.70
2017-08-28T17:19:06.325Z,45.40
2017-08-28T17:21:34.269Z,45.00
2017-08-28T17:24:00.596Z,47.50
2017-08-28T17:26:26.905Z,47.60
2017-08-28T17:28:53.959Z,49.50
2017-08-28T17:31:20.752Z,50.20
2017-08-28T17:33:47.625Z,50.70
2017-08-28T17:36:13.951Z,51.40
2017-08-28T17:38:41.205Z,50.40
2017-08-28T17:41:07.447Z,49.30
2017-08-28T17:43:33.722Z,50.70
2017-08-28T17:46:00.751Z,50.80
2017-08-28T17:48:28.711Z,51.10
2017-08-28T17:50:55.744Z,51.40
2017-08-28T17:53:22.020Z,50.70
2017-08-28T17:55:48.524Z,53.20
2017-08-28T17:58:15.777Z,53.20
2017-08-28T18:00:42.117Z,52.80
2017-08-28T18:03:09.248Z,52.90
2017-08-28T18:05:35.564Z,52.90
2017-08-28T18:08:02.762Z,52.50
2017-08-28T18:10:30.387Z,52.10
2017-08-28T18:12:57.377Z,52.30
2017-08-28T18:15:23.971Z,52.40
2017-08-28T18:17:50.339Z,52.20
2017-08-28T18:20:17.257Z,52.60
2017-08-28T18:22:43.660Z,52.30
2017-08-28T18:25:09.945Z,53.70
2017-08-28T18:27:36.519Z,52.70
2017-08-28T18:30:02.883Z,53.40
2017-08-28T18:32:30.230Z,53.40
2017-08-28T18:34:56.566Z,53.90
2017-08-28T18:37:22.892Z,53.90
2017-08-28T18:39:49.169Z,54.30
2017-08-28T18:42:15.438Z,54.60
2017-08-28T18:44:42.188Z,55.50
2017-08-28T18:47:08.461Z,56.20
2017-08-28T18:49:34.735Z,55.40
2017-08-28T18:52:01.004Z,55.80
2017-08-28T18:54:27.285Z,55.50
2017-08-28T18:56:53.544Z,56.00
2017-08-28T18:59:19.958Z,56.30
2017-08-28T19:01:46.257Z,56.40
2017-08-28T19:04:13.174Z,56.70
2017-08-28T19:06:39.981Z,57.00
2017-08-28T19:09:06.360Z,56.90
2017-08-28T19:11:33.248Z,57.30
2017-08-28T19:13:59.885Z,57.20
2017-08-28T19:16:26.245Z,56.90
2017-08-28T19:18:52.596Z,57.80
2017-08-28T19:21:19.992Z,57.50
2017-08-28T19:23:46.832Z,58.90
2017-08-28T19:26:13.807Z,57.80
2017-08-28T19:28:40.151Z,57.90
2017-08-28T19:31:06.753Z,58.30
2017-08-28T19:33:44.090Z,58.30
2017-08-28T19:36:10.381Z,58.50
2017-08-28T19:38:36.685Z,58.50
2017-08-28T19:41:03.407Z,58.50
2017-08-28T19:43:29.788Z,58.70
2017-08-28T19:45:56.079Z,58.80
2017-08-28T19:48:22.730Z,59.20
2017-08-28T19:50:49.259Z,59.50
2017-08-28T19:53:16.083Z,59.30
2017-08-28T19:55:42.454Z,59.20
2017-08-28T19:58:09.613Z,59.50
2017-08-28T20:00:35.903Z,59.60
2017-08-28T20:03:02.768Z,59.90
2017-08-28T20:05:30.064Z,59.80
2017-08-28T20:07:56.387Z,59.80
2017-08-28T20:10:22.671Z,59.90
2017-08-28T20:12:49.920Z,60.40
2017-08-28T20:15:17.138Z,63.00
2017-08-28T20:17:44.698Z,63.30
2017-08-28T20:20:11.821Z,63.30
2017-08-28T20:22:38.148Z,63.40
2017-08-28T20:25:05.257Z,62.80
2017-08-28T20:27:33.520Z,63.60
2017-08-28T20:30:00.311Z,62.60
2017-08-28T20:32:26.605Z,63.90
2017-08-28T20:34:53.422Z,63.70
2017-08-28T20:37:19.706Z,63.10
2017-08-28T20:39:46.627Z,62.20
2017-08-28T20:42:12.972Z,62.30
2017-08-28T20:44:39.238Z,62.00
2017-08-28T20:47:05.735Z,62.10
2017-08-28T20:49:32.088Z,62.70
2017-08-28T20:51:58.670Z,62.30
2017-08-28T20:54:25.039Z,63.70
2017-08-28T20:56:51.767Z,62.80
2017-08-28T20:59:18.761Z,63.70
2017-08-28T21:01:45.589Z,63.20
2017-08-28T21:04:12.275Z,63.90
2017-08-28T21:06:39.564Z,63.20
2017-08-28T21:09:06.593Z,63.80
2017-08-28T21:11:33.391Z,63.40
2017-08-28T21:14:00.677Z,64.80
2017-08-28T21:16:26.924Z,63.60
2017-08-28T21:18:53.219Z,64.30
2017-08-28T21:21:19.519Z,64.30
2017-08-28T21:23:45.947Z,65.20
2017-08-28T21:26:12.504Z,65.50
2017-08-28T21:28:38.867Z,64.80
2017-08-28T21:31:05.802Z,67.80
2017-08-28T21:33:33.354Z,65.70
2017-08-28T21:35:59.603Z,65.70
2017-08-28T21:38:25.889Z,65.80
2017-08-28T21:40:52.849Z,66.90
2017-08-28T21:43:20.074Z,68.20
2017-08-28T21:45:47.879Z,66.50
2017-08-28T21:48:14.220Z,68.40
2017-08-28T21:50:40.545Z,67.30
2017-08-28T21:53:06.829Z,66.50
2017-08-28T21:55:33.103Z,67.30
2017-08-28T21:58:00.241Z,66.80
2017-08-28T22:00:26.585Z,67.60
2017-08-28T22:02:52.838Z,66.60
2017-08-28T22:05:19.125Z,66.00
2017-08-28T22:07:45.417Z,67.30
2017-08-28T22:10:11.653Z,67.50
2017-08-28T22:12:39.072Z,68.10
2017-08-28T22:15:05.324Z,68.00
2017-08-28T22:17:31.622Z,67.40
2017-08-28T22:19:57.885Z,68.00
2017-08-28T22:22:24.746Z,67.80
2017-08-28T22:24:51.420Z,68.30
2017-08-28T22:27:18.354Z,67.70
2017-08-28T22:29:44.776Z,68.00
2017-08-28T22:32:18.191Z,68.20
2017-08-28T22:34:44.457Z,67.40
2017-08-28T22:37:11.482Z,66.90
2017-08-28T22:39:37.845Z,67.40
2017-08-28T22:42:04.121Z,66.50
2017-08-28T22:44:30.391Z,67.80
2017-08-28T22:46:56.617Z,67.50
2017-08-28T22:49:23.461Z,66.90
2017-08-28T22:51:49.716Z,67.20
2017-08-28T22:54:16.010Z,66.80
2017-08-28T22:56:42.269Z,67.00
2017-08-28T22:59:08.597Z,66.80
2017-08-28T23:01:34.857Z,67.00
2017-08-28T23:04:01.519Z,67.30
2017-08-28T23:06:27.843Z,66.60
2017-08-28T23:08:54.124Z,67.30
2017-08-28T23:11:20.407Z,66.70
2017-08-28T23:13:48.660Z,67.10
2017-08-28T23:16:14.920Z,67.50
2017-08-28T23:18:41.720Z,67.60
2017-08-28T23:21:08.486Z,67.90
2017-08-28T23:23:35.255Z,67.50
2017-08-28T23:26:01.925Z,67.80
2017-08-28T23:28:29.305Z,66.90
2017-08-28T23:30:56.444Z,68.10
2017-08-28T23:33:23.539Z,68.00
2017-08-28T23:35:50.818Z,68.20
2017-08-28T23:38:17.607Z,68.10
2017-08-28T23:40:44.685Z,67.80
2017-08-28T23:43:10.970Z,68.00
2017-08-28T23:45:37.226Z,68.80
2017-08-28T23:48:03.493Z,68.90
2017-08-28T23:50:30.623Z,68.40
2017-08-28T23:52:56.959Z,68.70
2017-08-28T23:55:23.213Z,69.10
2017-08-28T23:57:50.474Z,68.20
